TimeCST,TemperatureF,Dew PointF,Humidity,Sea Level PressureIn,VisibilityMPH,Wind Direction,Wind SpeedMPH,Gust SpeedMPH,PrecipitationIn,Events,Conditions,WindDirDegrees,DateUTC
12:15 AM,33.8,23.0,65,30.51,10.0,WSW,5.8,-,N/A,,Clear,250,2012-11-13 06:15:00
12:35 AM,33.8,24.8,70,30.50,10.0,Calm,Calm,-,N/A,,Clear,0,2012-11-13 06:35:00
12:55 AM,33.8,23.0,65,30.50,10.0,Calm,Calm,-,N/A,,Clear,0,2012-11-13 06:55:00
1:15 AM,33.8,23.0,65,30.49,10.0,Calm,Calm,-,N/A,,Clear,0,2012-11-13 07:15:00
1:35 AM,33.8,23.0,65,30.48,10.0,Calm,Calm,-,N/A,,Clear,0,2012-11-13 07:35:00
1:55 AM,33.8,23.0,65,30.48,10.0,SSE,3.5,-,N/A,,Clear,160,2012-11-13 07:55:00
2:15 AM,32.0,23.0,69,30.47,10.0,Calm,Calm,-,N/A,,Clear,0,2012-11-13 08:15:00
2:35 AM,30.2,23.0,75,30.46,10.0,SE,6.9,-,N/A,,Clear,140,2012-11-13 08:35:00
2:55 AM,30.2,23.0,75,30.45,10.0,SE,4.6,-,N/A,,Clear,140,2012-11-13 08:55:00
4:35 AM,30.2,23.0,75,30.44,10.0,SE,6.9,-,N/A,,Clear,140,2012-11-13 10:35:00
4:55 AM,30.2,23.0,75,30.44,10.0,SE,8.1,-,N/A,,Clear,130,2012-11-13 10:55:00
6:15 AM,32.0,21.2,64,30.46,10.0,Calm,Calm,-,N/A,,Clear,0,2012-11-13 12:15:00
6:35 AM,32.0,21.2,64,30.47,10.0,Calm,Calm,-,N/A,,Clear,0,2012-11-13 12:35:00
6:55 AM,32.0,23.0,69,30.47,10.0,Calm,Calm,-,N/A,,Clear,0,2012-11-13 12:55:00
7:15 AM,32.0,23.0,69,30.47,10.0,North,-9999.0,-,N/A,,Clear,0,2012-11-13 13:15:00
7:35 AM,32.0,23.0,69,30.47,10.0,Calm,Calm,-,N/A,,Clear,0,2012-11-13 13:35:00
7:55 AM,32.0,23.0,69,30.47,10.0,Calm,Calm,-,N/A,,Clear,0,2012-11-13 13:55:00
8:15 AM,33.8,26.6,75,30.47,10.0,Calm,Calm,-,N/A,,Clear,0,2012-11-13 14:15:00
8:35 AM,35.6,26.6,70,30.48,10.0,Calm,Calm,-,N/A,,Clear,0,2012-11-13 14:35:00
8:55 AM,37.4,26.6,65,30.48,10.0,Calm,Calm,-,N/A,,Clear,0,2012-11-13 14:55:00
9:15 AM,41.0,26.6,57,30.47,10.0,Calm,Calm,-,N/A,,Clear,0,2012-11-13 15:15:00
9:35 AM,46.4,24.8,43,30.47,10.0,SSE,3.5,-,N/A,,Clear,150,2012-11-13 15:35:00
9:55 AM,48.2,24.8,40,30.47,10.0,SSE,3.5,-,N/A,,Clear,150,2012-11-13 15:55:00
10:15 AM,51.8,19.4,28,30.47,10.0,SSE,9.2,17.3,N/A,,Clear,160,2012-11-13 16:15:00
10:35 AM,51.8,19.4,28,30.47,10.0,SSE,12.7,19.6,N/A,,Clear,150,2012-11-13 16:35:00
10:55 AM,53.6,19.4,26,30.45,10.0,South,13.8,17.3,N/A,,Clear,170,2012-11-13 16:55:00
11:15 AM,55.4,17.6,23,30.44,10.0,SE,13.8,20.7,N/A,,Clear,140,2012-11-13 17:15:00
11:35 AM,55.4,17.6,23,30.43,10.0,South,15.0,19.6,N/A,,Clear,170,2012-11-13 17:35:00
11:55 AM,55.4,19.4,25,30.41,10.0,South,12.7,17.3,N/A,,Clear,180,2012-11-13 17:55:00
12:15 PM,57.2,19.4,23,30.40,10.0,South,11.5,-,N/A,,Clear,180,2012-11-13 18:15:00
12:35 PM,57.2,17.6,21,30.38,10.0,South,11.5,-,N/A,,Clear,190,2012-11-13 18:35:00
12:55 PM,59.0,17.6,20,30.37,10.0,SSW,10.4,-,N/A,,Clear,200,2012-11-13 18:55:00
1:15 PM,60.8,17.6,19,30.36,10.0,South,10.4,18.4,N/A,,Clear,180,2012-11-13 19:15:00
1:35 PM,59.0,17.6,20,30.36,10.0,SSW,9.2,17.3,N/A,,Clear,200,2012-11-13 19:35:00
1:55 PM,59.0,15.8,19,30.35,10.0,SSE,5.8,-,N/A,,Mostly Cloudy,150,2012-11-13 19:55:00
2:15 PM,59.0,14.0,17,30.35,10.0,North,-9999.0,-,N/A,,Overcast,0,2012-11-13 20:15:00
2:35 PM,57.2,14.0,18,30.34,10.0,SSW,11.5,-,N/A,,Overcast,200,2012-11-13 20:35:00
2:55 PM,57.2,14.0,18,30.34,10.0,South,8.1,-,N/A,,Overcast,180,2012-11-13 20:55:00
3:15 PM,57.2,14.0,18,30.33,10.0,SSW,8.1,-,N/A,,Overcast,210,2012-11-13 21:15:00
3:35 PM,57.2,14.0,18,30.32,10.0,SSE,8.1,-,N/A,,Overcast,160,2012-11-13 21:35:00
3:55 PM,57.2,15.8,20,30.31,10.0,SSE,10.4,-,N/A,,Overcast,160,2012-11-13 21:55:00
4:15 PM,57.2,17.6,21,30.31,10.0,SSE,6.9,-,N/A,,Overcast,160,2012-11-13 22:15:00
4:35 PM,57.2,15.8,20,30.29,10.0,SE,9.2,-,N/A,,Overcast,140,2012-11-13 22:35:00
4:55 PM,55.4,17.6,23,30.30,10.0,SSE,11.5,17.3,N/A,,Overcast,160,2012-11-13 22:55:00
5:15 PM,55.4,17.6,23,30.30,10.0,SSE,10.4,-,N/A,,Overcast,150,2012-11-13 23:15:00
5:35 PM,55.4,15.8,21,30.30,10.0,South,9.2,-,N/A,,Overcast,170,2012-11-13 23:35:00
5:55 PM,55.4,15.8,21,30.31,10.0,South,8.1,-,N/A,,Overcast,180,2012-11-13 23:55:00
6:15 PM,53.6,17.6,24,30.32,10.0,South,4.6,-,N/A,,Overcast,170,2012-11-14 00:15:00
6:35 PM,53.6,17.6,24,30.32,10.0,South,5.8,-,N/A,,Overcast,170,2012-11-14 00:35:00
6:55 PM,51.8,17.6,26,30.32,10.0,South,6.9,-,N/A,,Scattered Clouds,170,2012-11-14 00:55:00
7:15 PM,51.8,17.6,26,30.32,10.0,South,5.8,-,N/A,,Mostly Cloudy,180,2012-11-14 01:15:00
7:35 PM,50.0,17.6,28,30.33,10.0,SSE,4.6,-,N/A,,Scattered Clouds,160,2012-11-14 01:35:00
7:55 PM,50.0,17.6,28,30.33,10.0,SSE,4.6,-,N/A,,Clear,150,2012-11-14 01:55:00
8:15 PM,46.4,19.4,34,30.34,10.0,SE,3.5,-,N/A,,Clear,140,2012-11-14 02:15:00
8:35 PM,44.6,19.4,37,30.35,10.0,SSE,3.5,-,N/A,,Clear,150,2012-11-14 02:35:00
8:55 PM,44.6,19.4,37,30.35,10.0,SSE,4.6,-,N/A,,Clear,150,2012-11-14 02:55:00
9:15 PM,42.8,19.4,39,30.36,10.0,SE,4.6,-,N/A,,Clear,140,2012-11-14 03:15:00
9:35 PM,39.2,21.2,49,30.35,10.0,SE,8.1,-,N/A,,Clear,130,2012-11-14 03:35:00
9:55 PM,41.0,21.2,45,30.35,10.0,SSE,8.1,-,N/A,,Clear,150,2012-11-14 03:55:00
10:15 PM,41.0,21.2,45,30.35,10.0,SSE,8.1,-,N/A,,Clear,160,2012-11-14 04:15:00
10:35 PM,41.0,21.2,45,30.36,10.0,SSE,6.9,-,N/A,,Clear,160,2012-11-14 04:35:00
10:55 PM,42.8,21.2,42,30.36,10.0,SSE,9.2,-,N/A,,Clear,150,2012-11-14 04:55:00
11:15 PM,39.2,21.2,49,30.36,10.0,SSE,8.1,-,N/A,,Clear,150,2012-11-14 05:15:00
11:35 PM,39.2,26.6,61,30.36,10.0,SSE,4.6,-,N/A,,Clear,150,2012-11-14 05:35:00
11:55 PM,37.4,24.8,60,30.36,10.0,SSE,6.9,-,N/A,,Clear,160,2012-11-14 05:55:00